createdAt,value
2019-01-08T00:00:24.967Z,6.80
2019-01-08T00:02:53.699Z,6.90
2019-01-08T00:05:22.890Z,7.00
2019-01-08T00:07:51.614Z,7.00
2019-01-08T00:10:20.623Z,7.10
2019-01-08T00:12:49.356Z,7.00
2019-01-08T00:15:18.160Z,7.10
2019-01-08T00:17:46.931Z,7.10
2019-01-08T00:20:15.723Z,7.10
2019-01-08T00:22:44.535Z,7.10
2019-01-08T00:25:13.363Z,7.10
2019-01-08T00:27:42.074Z,7.10
2019-01-08T00:30:11.042Z,7.20
2019-01-08T00:32:39.766Z,7.20
2019-01-08T00:35:08.516Z,7.10
2019-01-08T00:37:37.541Z,7.20
2019-01-08T00:40:06.403Z,7.20
2019-01-08T00:42:35.134Z,7.20
2019-01-08T00:45:03.888Z,7.20
2019-01-08T00:47:32.615Z,7.20
2019-01-08T00:50:01.383Z,7.20
2019-01-08T00:52:30.122Z,7.20
2019-01-08T00:54:58.955Z,7.20
2019-01-08T00:57:27.726Z,7.30
2019-01-08T00:59:56.434Z,7.30
2019-01-08T01:02:25.145Z,7.30
2019-01-08T01:04:53.920Z,7.30
2019-01-08T01:07:22.675Z,7.30
2019-01-08T01:09:51.489Z,7.30
2019-01-08T01:12:20.308Z,7.40
2019-01-08T01:14:49.075Z,7.40
2019-01-08T01:17:17.762Z,7.40
2019-01-08T01:19:46.592Z,7.40
2019-01-08T01:22:15.315Z,7.40
2019-01-08T01:24:44.124Z,7.50
2019-01-08T01:27:12.824Z,7.50
2019-01-08T01:29:41.549Z,7.50
2019-01-08T01:32:10.321Z,7.50
2019-01-08T01:34:39.080Z,7.50
2019-01-08T01:37:07.761Z,7.50
2019-01-08T01:39:36.487Z,7.50
2019-01-08T01:42:08.175Z,7.60
2019-01-08T01:44:36.902Z,7.60
2019-01-08T01:47:05.634Z,7.60
2019-01-08T01:49:34.386Z,7.60
2019-01-08T01:52:03.109Z,7.60
2019-01-08T01:54:31.851Z,7.60
2019-01-08T01:57:00.572Z,7.60
2019-01-08T01:59:29.263Z,7.60
2019-01-08T02:01:57.955Z,7.50
2019-01-08T02:04:26.722Z,7.60
2019-01-08T02:06:55.386Z,7.60
2019-01-08T02:09:24.170Z,7.60
2019-01-08T02:11:53.219Z,7.60
2019-01-08T02:14:22.052Z,7.60
2019-01-08T02:16:50.737Z,7.60
2019-01-08T02:19:19.447Z,7.60
2019-01-08T02:21:48.193Z,7.60
2019-01-08T02:24:16.883Z,7.60
2019-01-08T02:26:45.580Z,7.60
2019-01-08T02:29:16.598Z,7.60
2019-01-08T02:31:44.878Z,7.60
2019-01-08T02:34:13.688Z,7.50
2019-01-08T02:36:42.396Z,7.50
2019-01-08T02:39:11.085Z,7.50
2019-01-08T02:41:39.808Z,7.60
2019-01-08T02:44:08.623Z,7.50
2019-01-08T02:46:37.622Z,7.50
2019-01-08T02:49:06.553Z,7.50
2019-01-08T02:51:35.286Z,7.50
2019-01-08T02:54:04.015Z,7.50
2019-01-08T02:56:32.722Z,7.40
2019-01-08T02:59:01.489Z,7.40
2019-01-08T03:01:30.287Z,7.40
2019-01-08T03:03:59.213Z,7.40
2019-01-08T03:06:27.998Z,7.40
2019-01-08T03:08:56.768Z,7.30
2019-01-08T03:11:25.536Z,7.30
2019-01-08T03:13:54.311Z,7.30
2019-01-08T03:16:23.045Z,7.30
2019-01-08T03:18:51.787Z,7.30
2019-01-08T03:21:20.462Z,7.30
2019-01-08T03:23:49.181Z,7.30
2019-01-08T03:26:17.948Z,7.30
2019-01-08T03:28:46.666Z,7.30
2019-01-08T03:31:15.494Z,7.20
2019-01-08T03:33:44.219Z,7.20
2019-01-08T03:36:13.105Z,7.20
2019-01-08T03:38:41.920Z,7.20
2019-01-08T03:41:10.641Z,7.20
2019-01-08T03:43:39.412Z,7.10
2019-01-08T03:46:08.133Z,7.20
2019-01-08T03:48:36.856Z,7.10
2019-01-08T03:51:05.656Z,7.20
2019-01-08T03:53:34.411Z,7.20
2019-01-08T03:56:03.168Z,7.10
2019-01-08T03:58:31.973Z,7.20
2019-01-08T04:01:00.899Z,7.10
2019-01-08T04:03:29.676Z,7.20
2019-01-08T04:05:58.540Z,7.20
2019-01-08T04:08:27.273Z,7.20
2019-01-08T04:10:56.069Z,7.10
2019-01-08T04:13:24.934Z,7.20
2019-01-08T04:15:53.655Z,7.10
2019-01-08T04:18:22.421Z,7.10
2019-01-08T04:20:51.140Z,7.10
2019-01-08T04:23:19.916Z,7.20
2019-01-08T04:25:48.658Z,7.10
2019-01-08T04:28:17.355Z,7.10
2019-01-08T04:30:46.043Z,7.20
2019-01-08T04:33:14.744Z,7.10
2019-01-08T04:35:43.542Z,7.10
2019-01-08T04:38:12.302Z,7.00
2019-01-08T04:40:41.048Z,6.90
2019-01-08T04:43:09.779Z,6.90
2019-01-08T04:45:38.468Z,6.90
2019-01-08T04:48:07.208Z,6.90
2019-01-08T04:50:35.941Z,6.90
2019-01-08T04:53:04.689Z,6.90
2019-01-08T04:55:33.535Z,7.00
2019-01-08T04:58:02.387Z,7.00
2019-01-08T05:00:31.092Z,6.90
2019-01-08T05:02:59.809Z,6.90
2019-01-08T05:05:28.553Z,6.90
2019-01-08T05:07:57.260Z,6.90
2019-01-08T05:10:25.995Z,6.90
2019-01-08T05:12:54.818Z,6.90
2019-01-08T05:15:23.543Z,6.80
2019-01-08T05:17:52.327Z,6.80
2019-01-08T05:20:21.025Z,6.80
2019-01-08T05:22:49.744Z,6.80
2019-01-08T05:25:18.545Z,6.80
2019-01-08T05:27:47.381Z,6.90
2019-01-08T05:30:16.078Z,6.90
2019-01-08T05:32:44.841Z,6.90
2019-01-08T05:35:13.581Z,7.00
2019-01-08T05:37:42.305Z,7.00
2019-01-08T05:40:11.026Z,7.10
2019-01-08T05:42:39.837Z,7.00
2019-01-08T05:45:08.587Z,6.90
2019-01-08T05:47:37.391Z,6.90
2019-01-08T05:50:06.404Z,6.90
2019-01-08T05:52:35.278Z,6.90
2019-01-08T05:55:03.998Z,6.90
2019-01-08T05:57:32.712Z,6.90
2019-01-08T06:00:01.452Z,6.90
2019-01-08T06:02:30.169Z,6.90
2019-01-08T06:04:58.988Z,6.90
2019-01-08T06:07:27.790Z,6.90
2019-01-08T06:09:56.476Z,7.00
2019-01-08T06:12:28.178Z,6.90
2019-01-08T06:14:56.905Z,7.00
2019-01-08T06:17:25.796Z,7.00
2019-01-08T06:19:55.192Z,7.00
2019-01-08T06:22:23.999Z,6.90
2019-01-08T06:24:52.696Z,7.00
2019-01-08T06:27:21.406Z,7.00
2019-01-08T06:29:50.139Z,7.00
2019-01-08T06:32:18.859Z,7.00
2019-01-08T06:34:47.611Z,7.00
2019-01-08T06:37:16.332Z,7.10
2019-01-08T06:39:45.221Z,7.10
2019-01-08T06:42:14.164Z,7.10
2019-01-08T06:44:42.884Z,7.10
2019-01-08T06:47:11.819Z,7.10
2019-01-08T06:49:40.582Z,7.10
2019-01-08T06:52:09.475Z,7.10
2019-01-08T06:54:38.210Z,7.10
2019-01-08T06:57:07.030Z,7.10
2019-01-08T06:59:35.832Z,7.10
2019-01-08T07:02:04.598Z,7.10
2019-01-08T07:04:33.340Z,7.10
2019-01-08T07:07:02.064Z,7.20
2019-01-08T07:09:30.861Z,7.10
2019-01-08T07:11:59.551Z,7.10
2019-01-08T07:14:28.255Z,7.10
2019-01-08T07:16:57.014Z,7.10
2019-01-08T07:19:25.810Z,7.10
2019-01-08T07:21:54.478Z,7.10
2019-01-08T07:24:23.211Z,7.10
2019-01-08T07:26:51.994Z,7.10
2019-01-08T07:29:20.751Z,7.10
2019-01-08T07:31:49.486Z,7.10
2019-01-08T07:34:18.330Z,7.00
2019-01-08T07:36:47.105Z,7.00
2019-01-08T07:39:16.017Z,7.00
2019-01-08T07:41:44.799Z,7.00
2019-01-08T07:44:13.592Z,7.00
2019-01-08T07:46:42.376Z,7.00
2019-01-08T07:49:11.205Z,7.00
2019-01-08T07:51:39.958Z,7.00
2019-01-08T07:54:08.742Z,6.90
2019-01-08T07:56:37.473Z,6.90
2019-01-08T07:59:06.258Z,6.90
2019-01-08T08:01:35.037Z,6.90
2019-01-08T08:04:03.800Z,6.90
2019-01-08T08:06:32.588Z,6.90
2019-01-08T08:09:01.310Z,7.00
2019-01-08T08:11:30.034Z,7.00
2019-01-08T08:13:58.790Z,7.00
2019-01-08T08:16:27.537Z,7.00
2019-01-08T08:18:56.215Z,6.90
2019-01-08T08:21:24.961Z,6.90
2019-01-08T08:23:53.791Z,6.80
2019-01-08T08:26:22.475Z,6.80
2019-01-08T08:28:51.267Z,6.80
2019-01-08T08:31:20.042Z,6.60
2019-01-08T08:33:48.767Z,6.50
2019-01-08T08:36:17.550Z,6.50
2019-01-08T08:38:46.378Z,6.60
2019-01-08T08:41:15.217Z,6.60
2019-01-08T08:43:43.939Z,6.60
2019-01-08T08:46:12.827Z,6.70
2019-01-08T08:48:41.616Z,6.70
2019-01-08T08:51:10.315Z,6.60
2019-01-08T08:53:39.044Z,6.50
2019-01-08T08:56:07.818Z,6.50
2019-01-08T08:58:36.621Z,6.40
2019-01-08T09:01:06.964Z,6.50
2019-01-08T09:03:35.896Z,6.50
2019-01-08T09:06:04.775Z,6.50
2019-01-08T09:08:33.516Z,6.50
2019-01-08T09:11:02.204Z,6.50
2019-01-08T09:13:30.917Z,6.40
2019-01-08T09:15:59.675Z,6.30
2019-01-08T09:18:28.406Z,6.30
2019-01-08T09:20:57.126Z,6.30
2019-01-08T09:23:25.865Z,6.30
2019-01-08T09:25:54.640Z,6.30
2019-01-08T09:28:23.478Z,6.30
2019-01-08T09:30:52.224Z,6.30
2019-01-08T09:33:21.123Z,6.30
2019-01-08T09:35:50.795Z,6.30
2019-01-08T09:38:19.691Z,6.30
2019-01-08T09:40:48.558Z,6.40
2019-01-08T09:43:17.256Z,6.50
2019-01-08T09:45:46.031Z,6.50
2019-01-08T09:48:14.716Z,6.50
2019-01-08T09:50:43.454Z,6.60
2019-01-08T09:53:12.142Z,6.60
2019-01-08T09:55:40.994Z,6.70
2019-01-08T09:58:09.761Z,6.80
2019-01-08T10:00:38.558Z,6.90
2019-01-08T10:03:07.384Z,7.00
2019-01-08T10:05:36.178Z,7.00
2019-01-08T10:08:04.862Z,7.00
2019-01-08T10:10:33.567Z,7.10
2019-01-08T10:13:02.302Z,7.10
2019-01-08T10:15:31.126Z,7.10
2019-01-08T10:17:59.987Z,7.20
2019-01-08T10:20:28.725Z,7.20
2019-01-08T10:22:57.452Z,7.30
2019-01-08T10:25:26.272Z,7.40
2019-01-08T10:27:54.994Z,7.40
2019-01-08T10:30:23.830Z,7.40
2019-01-08T10:32:52.533Z,7.40
2019-01-08T10:35:21.494Z,7.40
2019-01-08T10:37:50.222Z,7.30
2019-01-08T10:40:18.953Z,7.30
2019-01-08T10:42:47.787Z,7.30
2019-01-08T10:45:16.561Z,7.20
2019-01-08T10:47:45.319Z,7.20
2019-01-08T10:50:14.158Z,7.30
2019-01-08T10:52:42.890Z,7.30
2019-01-08T10:55:11.590Z,7.40
2019-01-08T10:57:40.334Z,7.50
2019-01-08T11:00:10.232Z,7.50
2019-01-08T11:02:39.082Z,7.50
2019-01-08T11:05:07.854Z,7.50
2019-01-08T11:07:36.567Z,7.50
2019-01-08T11:10:05.407Z,7.50
2019-01-08T11:12:34.131Z,7.50
2019-01-08T11:15:02.930Z,7.40
2019-01-08T11:17:31.623Z,7.40
2019-01-08T11:20:00.342Z,7.30
2019-01-08T11:22:29.044Z,7.40
2019-01-08T11:24:57.756Z,7.40
2019-01-08T11:27:26.499Z,7.30
2019-01-08T11:29:55.249Z,7.40
2019-01-08T11:32:23.961Z,7.40
2019-01-08T11:34:52.723Z,7.50
2019-01-08T11:37:21.428Z,7.50
2019-01-08T11:39:50.141Z,7.60
2019-01-08T11:42:18.990Z,7.60
2019-01-08T11:44:47.717Z,7.60
2019-01-08T11:47:16.462Z,7.70
2019-01-08T11:49:45.202Z,7.80
2019-01-08T11:52:13.982Z,7.80
2019-01-08T11:54:42.715Z,7.80
2019-01-08T11:57:11.423Z,7.80
2019-01-08T11:59:40.200Z,7.90
2019-01-08T12:02:09.175Z,8.00
2019-01-08T12:04:37.920Z,8.00
2019-01-08T12:07:06.688Z,8.00
2019-01-08T12:09:35.498Z,8.00
2019-01-08T12:12:06.801Z,7.90
2019-01-08T12:14:35.528Z,7.90
2019-01-08T12:17:04.286Z,7.90
2019-01-08T12:19:33.063Z,8.00
2019-01-08T12:22:01.821Z,8.10
2019-01-08T12:24:30.687Z,7.90
2019-01-08T12:26:59.500Z,7.90
2019-01-08T12:29:28.266Z,7.70
2019-01-08T12:32:05.653Z,7.50
2019-01-08T12:34:27.732Z,7.20
2019-01-08T12:36:56.544Z,7.10
2019-01-08T12:39:25.413Z,6.90
2019-01-08T12:41:54.277Z,6.70
2019-01-08T12:44:23.207Z,6.50
2019-01-08T12:46:52.104Z,6.50
2019-01-08T12:49:20.775Z,6.50
2019-01-08T12:51:49.555Z,6.60
2019-01-08T12:54:18.377Z,6.70
2019-01-08T12:56:47.150Z,6.80
2019-01-08T12:59:15.937Z,6.90
2019-01-08T13:01:44.660Z,7.00
2019-01-08T13:04:13.457Z,7.00
2019-01-08T13:06:43.682Z,7.00
2019-01-08T13:09:12.648Z,7.00
2019-01-08T13:11:41.416Z,6.90
2019-01-08T13:14:10.153Z,6.60
2019-01-08T13:16:38.891Z,6.50
2019-01-08T13:19:07.978Z,6.30
2019-01-08T13:21:37.158Z,6.20
2019-01-08T13:24:05.994Z,6.20
2019-01-08T13:26:35.087Z,6.10
2019-01-08T13:29:03.854Z,6.10
2019-01-08T13:31:32.604Z,6.10
2019-01-08T13:34:01.371Z,6.10
2019-01-08T13:36:30.177Z,6.20
2019-01-08T13:38:58.892Z,6.30
2019-01-08T13:41:27.812Z,6.30
2019-01-08T13:43:56.518Z,6.40
2019-01-08T13:46:25.324Z,6.30
2019-01-08T13:48:54.179Z,6.30
2019-01-08T13:51:23.070Z,6.30
2019-01-08T13:53:51.857Z,6.30
2019-01-08T13:56:20.656Z,6.20
2019-01-08T13:58:49.391Z,6.30
2019-01-08T14:01:18.161Z,6.40
2019-01-08T14:03:46.958Z,6.40
2019-01-08T14:06:15.751Z,6.50
2019-01-08T14:08:44.521Z,6.40
2019-01-08T14:11:13.227Z,6.40
2019-01-08T14:13:42.001Z,6.40
2019-01-08T14:16:10.856Z,6.30
2019-01-08T14:18:39.587Z,6.40
2019-01-08T14:21:08.353Z,6.50
2019-01-08T14:23:37.180Z,6.60
2019-01-08T14:26:05.930Z,6.60
2019-01-08T14:28:35.090Z,6.60
2019-01-08T14:31:03.801Z,6.50
2019-01-08T14:33:32.627Z,6.50
2019-01-08T14:36:01.321Z,6.40
2019-01-08T14:38:30.370Z,6.40
2019-01-08T14:40:59.093Z,6.40
2019-01-08T14:43:28.009Z,6.30
2019-01-08T14:45:56.722Z,6.30
2019-01-08T14:48:25.648Z,6.40
2019-01-08T14:50:54.325Z,6.30
2019-01-08T14:53:23.098Z,6.40
2019-01-08T14:55:52.044Z,6.50
2019-01-08T14:58:20.828Z,6.40
2019-01-08T15:00:49.927Z,6.30
2019-01-08T15:03:18.618Z,6.30
2019-01-08T15:05:47.369Z,6.30
2019-01-08T15:08:16.186Z,6.40
2019-01-08T15:10:44.898Z,6.40
2019-01-08T15:13:13.614Z,6.40
2019-01-08T15:15:42.435Z,6.40
2019-01-08T15:21:02.972Z,6.50
2019-01-08T15:23:31.699Z,6.50
2019-01-08T15:26:00.454Z,6.40
2019-01-08T15:28:29.243Z,6.30
2019-01-08T15:30:57.958Z,6.30
2019-01-08T15:33:26.614Z,6.30
2019-01-08T15:35:55.295Z,6.30
2019-01-08T15:38:24.006Z,6.40
2019-01-08T15:40:52.814Z,6.40
2019-01-08T15:43:21.829Z,6.50
2019-01-08T15:45:50.563Z,6.50
2019-01-08T15:48:19.293Z,6.60
2019-01-08T15:50:48.018Z,6.60
2019-01-08T15:53:16.773Z,6.60
2019-01-08T15:55:45.451Z,6.60
2019-01-08T15:58:14.268Z,6.60
2019-01-08T16:00:42.974Z,6.50
2019-01-08T16:03:11.763Z,6.50
2019-01-08T16:05:40.487Z,6.40
2019-01-08T16:08:09.308Z,6.40
2019-01-08T16:10:38.062Z,6.30
2019-01-08T16:13:07.003Z,6.30
2019-01-08T16:15:35.766Z,6.30
2019-01-08T16:18:04.674Z,6.30
2019-01-08T16:20:36.218Z,6.10
2019-01-08T16:23:05.109Z,6.20
2019-01-08T16:25:34.035Z,6.10
2019-01-08T16:28:02.737Z,6.10
2019-01-08T16:30:31.589Z,6.10
2019-01-08T16:33:00.398Z,6.10
2019-01-08T16:35:29.251Z,6.20
2019-01-08T16:37:58.114Z,6.30
2019-01-08T16:40:29.607Z,6.10
2019-01-08T16:43:01.424Z,5.90
2019-01-08T16:45:30.167Z,5.70
2019-01-08T16:48:01.047Z,5.50
2019-01-08T16:50:29.361Z,5.30
2019-01-08T16:52:58.212Z,5.20
2019-01-08T16:55:26.894Z,5.10
2019-01-08T16:57:55.802Z,4.80
2019-01-08T17:00:24.502Z,4.60
2019-01-08T17:02:53.239Z,4.60
2019-01-08T17:05:21.973Z,4.60
2019-01-08T17:07:50.950Z,4.80
2019-01-08T17:10:19.821Z,4.80
2019-01-08T17:12:48.548Z,4.80
2019-01-08T17:15:17.405Z,4.70
2019-01-08T17:17:46.159Z,4.70
2019-01-08T17:20:14.936Z,4.70
2019-01-08T17:22:43.705Z,4.70
2019-01-08T17:25:12.429Z,4.70
2019-01-08T17:27:41.267Z,4.80
2019-01-08T17:30:11.296Z,5.00
2019-01-08T17:32:40.081Z,5.10
2019-01-08T17:35:08.918Z,5.20
2019-01-08T17:37:38.000Z,5.30
2019-01-08T17:40:07.532Z,5.40
2019-01-08T17:42:36.359Z,5.50
2019-01-08T17:45:06.352Z,5.60
2019-01-08T17:47:35.098Z,5.80
2019-01-08T17:50:04.124Z,5.80
2019-01-08T17:52:32.862Z,5.90
2019-01-08T17:55:01.713Z,5.90
2019-01-08T17:57:30.622Z,5.80
2019-01-08T17:59:59.382Z,5.80
2019-01-08T18:02:28.663Z,5.80
2019-01-08T18:04:57.598Z,5.80
2019-01-08T18:07:26.561Z,5.80
2019-01-08T18:09:55.520Z,5.90
2019-01-08T18:12:24.423Z,5.90
2019-01-08T18:14:53.278Z,5.80
2019-01-08T18:17:24.925Z,5.80
2019-01-08T18:19:53.646Z,5.80
2019-01-08T18:22:22.384Z,5.90
2019-01-08T18:24:51.105Z,5.80
2019-01-08T18:27:19.889Z,5.70
2019-01-08T18:29:48.621Z,5.50
2019-01-08T18:32:17.438Z,5.40
2019-01-08T18:34:46.155Z,5.30
2019-01-08T18:37:14.891Z,5.30
2019-01-08T18:39:43.755Z,5.20
2019-01-08T18:42:12.540Z,5.20
2019-01-08T18:44:41.300Z,5.10
2019-01-08T18:47:10.046Z,5.00
2019-01-08T18:49:40.010Z,5.00
2019-01-08T18:52:08.727Z,4.90
2019-01-08T18:54:37.518Z,5.00
2019-01-08T18:57:06.418Z,4.90
2019-01-08T18:59:35.196Z,5.00
2019-01-08T19:02:04.099Z,5.20
2019-01-08T19:04:32.793Z,5.20
2019-01-08T19:07:01.589Z,5.20
2019-01-08T19:09:34.514Z,5.10
2019-01-08T19:12:03.604Z,5.10
2019-01-08T19:14:42.099Z,5.10
2019-01-08T19:17:10.869Z,5.10
2019-01-08T19:19:39.642Z,5.10
2019-01-08T19:22:08.470Z,5.10
2019-01-08T19:24:37.263Z,5.20
2019-01-08T19:27:06.025Z,5.30
2019-01-08T19:29:35.047Z,5.30
2019-01-08T19:32:03.813Z,5.30
2019-01-08T19:34:32.554Z,5.40
2019-01-08T19:37:01.400Z,5.40
2019-01-08T19:39:31.235Z,5.50
2019-01-08T19:42:00.149Z,5.50
2019-01-08T19:44:29.025Z,5.50
2019-01-08T19:46:57.918Z,5.50
2019-01-08T19:49:26.894Z,5.40
2019-01-08T19:51:55.594Z,5.30
2019-01-08T19:54:24.303Z,5.20
2019-01-08T19:56:52.985Z,5.10
2019-01-08T19:59:21.707Z,5.10
2019-01-08T20:01:50.527Z,5.10
2019-01-08T20:04:19.371Z,5.10
2019-01-08T20:06:48.148Z,5.10
2019-01-08T20:09:24.950Z,5.20
2019-01-08T20:11:47.386Z,5.20
2019-01-08T20:14:16.688Z,5.10
2019-01-08T20:16:45.817Z,5.10
2019-01-08T20:19:14.565Z,5.20
2019-01-08T20:21:43.818Z,5.30
2019-01-08T20:24:12.584Z,5.20
2019-01-08T20:26:41.383Z,5.20
2019-01-08T20:29:10.109Z,5.40
2019-01-08T20:31:38.954Z,5.40
2019-01-08T20:34:07.913Z,5.40
2019-01-08T20:36:36.622Z,5.50
2019-01-08T20:39:08.257Z,5.50
2019-01-08T20:41:37.028Z,5.50
2019-01-08T20:44:05.837Z,5.50
2019-01-08T20:46:34.854Z,5.50
2019-01-08T20:49:03.568Z,5.50
2019-01-08T20:51:32.343Z,5.40
2019-01-08T20:54:01.079Z,5.50
2019-01-08T20:56:30.153Z,5.50
2019-01-08T20:58:59.117Z,5.50
2019-01-08T21:01:27.830Z,5.50
2019-01-08T21:03:56.606Z,5.50
2019-01-08T21:06:25.333Z,5.50
2019-01-08T21:08:54.137Z,5.50
2019-01-08T21:11:23.398Z,5.50
2019-01-08T21:13:52.197Z,5.50
2019-01-08T21:16:20.954Z,5.50
2019-01-08T21:18:49.691Z,5.50
2019-01-08T21:21:18.454Z,5.50
2019-01-08T21:23:47.179Z,5.40
2019-01-08T21:26:40.045Z,5.40
2019-01-08T21:29:12.374Z,5.40
2019-01-08T21:31:42.205Z,5.50
2019-01-08T21:34:15.437Z,5.40
2019-01-08T21:36:44.491Z,5.40
2019-01-08T21:39:13.377Z,5.40
2019-01-08T21:41:42.292Z,5.30
2019-01-08T21:44:12.226Z,5.30
2019-01-08T21:46:41.067Z,5.30
2019-01-08T21:49:10.278Z,5.20
2019-01-08T21:51:39.748Z,5.10
2019-01-08T21:54:08.842Z,5.10
2019-01-08T21:56:38.481Z,5.10
2019-01-08T21:59:08.178Z,5.10
2019-01-08T22:01:36.989Z,5.10
2019-01-08T22:04:06.162Z,5.20
2019-01-08T22:06:35.306Z,5.10
2019-01-08T22:09:05.289Z,5.00
2019-01-08T22:11:34.249Z,4.90
2019-01-08T22:14:03.094Z,5.00
2019-01-08T22:16:32.388Z,4.90
2019-01-08T22:19:01.153Z,4.90
2019-01-08T22:21:29.847Z,4.90
2019-01-08T22:23:58.741Z,4.90
2019-01-08T22:26:27.709Z,4.80
2019-01-08T22:28:56.683Z,4.80
2019-01-08T22:31:25.611Z,4.90
2019-01-08T22:33:54.529Z,4.90
2019-01-08T22:36:23.238Z,4.90
2019-01-08T22:38:52.065Z,4.90
2019-01-08T22:41:21.012Z,5.00
2019-01-08T22:43:50.105Z,5.00
2019-01-08T22:46:19.005Z,5.10
2019-01-08T22:48:47.818Z,5.00
2019-01-08T22:51:16.718Z,5.00
2019-01-08T22:53:45.750Z,5.10
2019-01-08T22:56:14.580Z,5.10
2019-01-08T22:58:43.509Z,5.10
2019-01-08T23:01:31.516Z,5.00
2019-01-08T23:04:01.033Z,5.00
2019-01-08T23:06:29.997Z,5.00
2019-01-08T23:08:58.744Z,5.00
2019-01-08T23:11:27.691Z,5.00
2019-01-08T23:13:56.481Z,5.10
2019-01-08T23:16:25.225Z,5.00
2019-01-08T23:18:54.032Z,5.10
2019-01-08T23:21:22.864Z,5.00
2019-01-08T23:23:51.744Z,4.90
2019-01-08T23:26:20.724Z,4.80
2019-01-08T23:28:49.518Z,4.70
2019-01-08T23:31:18.393Z,4.70
2019-01-08T23:33:47.661Z,4.60
2019-01-08T23:36:16.582Z,4.40
2019-01-08T23:38:45.387Z,4.20
2019-01-08T23:41:14.171Z,4.20
2019-01-08T23:43:42.994Z,4.10
2019-01-08T23:46:11.925Z,4.20
2019-01-08T23:48:40.743Z,4.30
2019-01-08T23:51:09.607Z,4.30
2019-01-08T23:53:39.779Z,4.30
2019-01-08T23:56:09.091Z,4.40
2019-01-08T23:58:38.018Z,4.40
